sensor_id;sensor_type;location;lat;lon;timestamp;P1;durP1;ratioP1;P2;durP2;ratioP2
24715;SDS011;12822;50.124;8.678;2023-05-29T00:00:48;6.57;;;3.60;;
24715;SDS011;12822;50.124;8.678;2023-05-29T00:03:14;11.48;;;4.20;;
24715;SDS011;12822;50.124;8.678;2023-05-29T00:05:42;7.63;;;3.95;;
24715;SDS011;12822;50.124;8.678;2023-05-29T00:08:08;8.18;;;3.80;;
24715;SDS011;12822;50.124;8.678;2023-05-29T00:10:34;7.90;;;3.55;;
24715;SDS011;12822;50.124;8.678;2023-05-29T00:13:02;9.80;;;4.00;;
24715;SDS011;12822;50.124;8.678;2023-05-29T00:15:28;9.18;;;4.05;;
24715;SDS011;12822;50.124;8.678;2023-05-29T00:17:55;11.25;;;3.70;;
24715;SDS011;12822;50.124;8.678;2023-05-29T00:20:21;7.35;;;3.28;;
24715;SDS011;12822;50.124;8.678;2023-05-29T00:22:47;8.40;;;3.47;;
24715;SDS011;12822;50.124;8.678;2023-05-29T00:25:14;7.50;;;3.33;;
24715;SDS011;12822;50.124;8.678;2023-05-29T00:27:40;8.68;;;3.80;;
24715;SDS011;12822;50.124;8.678;2023-05-29T00:30:07;6.47;;;3.33;;
24715;SDS011;12822;50.124;8.678;2023-05-29T00:32:33;7.53;;;3.25;;
24715;SDS011;12822;50.124;8.678;2023-05-29T00:34:59;9.43;;;3.75;;
24715;SDS011;12822;50.124;8.678;2023-05-29T00:37:25;12.70;;;4.28;;
24715;SDS011;12822;50.124;8.678;2023-05-29T00:39:51;12.43;;;4.18;;
24715;SDS011;12822;50.124;8.678;2023-05-29T00:42:17;9.13;;;3.75;;
24715;SDS011;12822;50.124;8.678;2023-05-29T00:44:43;7.20;;;3.42;;
24715;SDS011;12822;50.124;8.678;2023-05-29T00:47:09;10.15;;;4.15;;
24715;SDS011;12822;50.124;8.678;2023-05-29T00:49:36;9.10;;;3.80;;
24715;SDS011;12822;50.124;8.678;2023-05-29T00:52:03;13.40;;;3.90;;
24715;SDS011;12822;50.124;8.678;2023-05-29T00:54:31;6.50;;;3.47;;
24715;SDS011;12822;50.124;8.678;2023-05-29T00:56:59;8.27;;;4.10;;
24715;SDS011;12822;50.124;8.678;2023-05-29T00:59:26;10.68;;;4.20;;
24715;SDS011;12822;50.124;8.678;2023-05-29T01:01:53;5.95;;;3.60;;
24715;SDS011;12822;50.124;8.678;2023-05-29T01:04:20;7.60;;;3.83;;
24715;SDS011;12822;50.124;8.678;2023-05-29T01:06:46;10.23;;;3.47;;
24715;SDS011;12822;50.124;8.678;2023-05-29T01:09:12;9.35;;;4.25;;
24715;SDS011;12822;50.124;8.678;2023-05-29T01:14:09;11.63;;;4.20;;
24715;SDS011;12822;50.124;8.678;2023-05-29T01:16:44;8.32;;;3.88;;
24715;SDS011;12822;50.124;8.678;2023-05-29T01:24:13;10.30;;;3.55;;
24715;SDS011;12822;50.124;8.678;2023-05-29T01:29:10;7.43;;;3.38;;
24715;SDS011;12822;50.124;8.678;2023-05-29T01:31:37;8.48;;;3.50;;
24715;SDS011;12822;50.124;8.678;2023-05-29T01:34:04;8.65;;;3.83;;
24715;SDS011;12822;50.124;8.678;2023-05-29T01:36:30;7.70;;;3.67;;
24715;SDS011;12822;50.124;8.678;2023-05-29T01:38:57;7.78;;;3.97;;
24715;SDS011;12822;50.124;8.678;2023-05-29T01:41:24;7.80;;;3.25;;
24715;SDS011;12822;50.124;8.678;2023-05-29T01:43:51;6.78;;;3.47;;
24715;SDS011;12822;50.124;8.678;2023-05-29T01:46:17;11.68;;;3.65;;
24715;SDS011;12822;50.124;8.678;2023-05-29T01:48:44;7.97;;;4.03;;
24715;SDS011;12822;50.124;8.678;2023-05-29T01:51:10;7.85;;;3.55;;
24715;SDS011;12822;50.124;8.678;2023-05-29T01:53:37;10.60;;;3.70;;
24715;SDS011;12822;50.124;8.678;2023-05-29T01:56:04;8.55;;;3.83;;
24715;SDS011;12822;50.124;8.678;2023-05-29T01:58:31;12.30;;;4.15;;
24715;SDS011;12822;50.124;8.678;2023-05-29T02:00:57;8.18;;;3.85;;
24715;SDS011;12822;50.124;8.678;2023-05-29T02:03:23;9.98;;;4.13;;
24715;SDS011;12822;50.124;8.678;2023-05-29T02:05:49;6.60;;;3.60;;
24715;SDS011;12822;50.124;8.678;2023-05-29T02:08:15;5.82;;;3.65;;
24715;SDS011;12822;50.124;8.678;2023-05-29T02:10:41;8.82;;;3.78;;
24715;SDS011;12822;50.124;8.678;2023-05-29T02:13:07;7.20;;;3.30;;
24715;SDS011;12822;50.124;8.678;2023-05-29T02:15:33;7.55;;;3.72;;
24715;SDS011;12822;50.124;8.678;2023-05-29T02:17:59;7.10;;;3.63;;
24715;SDS011;12822;50.124;8.678;2023-05-29T02:20:26;9.02;;;3.20;;
24715;SDS011;12822;50.124;8.678;2023-05-29T02:22:52;8.80;;;3.40;;
24715;SDS011;12822;50.124;8.678;2023-05-29T02:25:18;15.35;;;4.63;;
24715;SDS011;12822;50.124;8.678;2023-05-29T02:27:44;10.77;;;3.65;;
24715;SDS011;12822;50.124;8.678;2023-05-29T02:30:10;8.23;;;3.47;;
24715;SDS011;12822;50.124;8.678;2023-05-29T02:32:36;7.03;;;3.88;;
24715;SDS011;12822;50.124;8.678;2023-05-29T02:35:02;10.38;;;3.90;;
24715;SDS011;12822;50.124;8.678;2023-05-29T02:37:31;7.40;;;3.35;;
24715;SDS011;12822;50.124;8.678;2023-05-29T02:39:57;8.80;;;3.40;;
24715;SDS011;12822;50.124;8.678;2023-05-29T02:42:23;5.50;;;3.03;;
24715;SDS011;12822;50.124;8.678;2023-05-29T02:44:49;7.90;;;4.10;;
24715;SDS011;12822;50.124;8.678;2023-05-29T02:47:15;8.48;;;3.60;;
24715;SDS011;12822;50.124;8.678;2023-05-29T02:49:41;7.57;;;3.90;;
24715;SDS011;12822;50.124;8.678;2023-05-29T02:52:07;8.48;;;3.30;;
24715;SDS011;12822;50.124;8.678;2023-05-29T02:54:33;7.85;;;3.53;;
24715;SDS011;12822;50.124;8.678;2023-05-29T02:56:59;12.38;;;3.72;;
24715;SDS011;12822;50.124;8.678;2023-05-29T02:59:25;7.53;;;3.75;;
24715;SDS011;12822;50.124;8.678;2023-05-29T03:01:51;13.25;;;4.53;;
24715;SDS011;12822;50.124;8.678;2023-05-29T03:04:17;8.10;;;3.58;;
24715;SDS011;12822;50.124;8.678;2023-05-29T03:06:43;11.25;;;3.78;;
24715;SDS011;12822;50.124;8.678;2023-05-29T03:09:10;10.43;;;4.25;;
24715;SDS011;12822;50.124;8.678;2023-05-29T03:11:37;10.75;;;3.85;;
24715;SDS011;12822;50.124;8.678;2023-05-29T03:14:05;9.82;;;4.03;;
24715;SDS011;12822;50.124;8.678;2023-05-29T03:16:31;12.38;;;4.03;;
24715;SDS011;12822;50.124;8.678;2023-05-29T03:18:57;9.05;;;4.35;;
24715;SDS011;12822;50.124;8.678;2023-05-29T03:21:23;12.60;;;4.30;;
24715;SDS011;12822;50.124;8.678;2023-05-29T03:23:50;11.95;;;4.65;;
24715;SDS011;12822;50.124;8.678;2023-05-29T03:26:16;11.20;;;4.50;;
24715;SDS011;12822;50.124;8.678;2023-05-29T03:28:42;8.95;;;4.30;;
24715;SDS011;12822;50.124;8.678;2023-05-29T03:31:08;15.13;;;4.05;;
24715;SDS011;12822;50.124;8.678;2023-05-29T03:33:35;11.63;;;5.20;;
24715;SDS011;12822;50.124;8.678;2023-05-29T03:36:01;13.05;;;5.15;;
24715;SDS011;12822;50.124;8.678;2023-05-29T03:38:27;11.68;;;4.82;;
24715;SDS011;12822;50.124;8.678;2023-05-29T03:40:53;12.85;;;4.95;;
24715;SDS011;12822;50.124;8.678;2023-05-29T03:43:19;13.18;;;4.55;;
24715;SDS011;12822;50.124;8.678;2023-05-29T03:45:45;13.48;;;5.03;;
24715;SDS011;12822;50.124;8.678;2023-05-29T03:48:11;11.32;;;4.80;;
24715;SDS011;12822;50.124;8.678;2023-05-29T03:50:39;12.52;;;4.97;;
24715;SDS011;12822;50.124;8.678;2023-05-29T03:53:05;13.20;;;5.22;;
24715;SDS011;12822;50.124;8.678;2023-05-29T03:55:31;10.15;;;4.32;;
24715;SDS011;12822;50.124;8.678;2023-05-29T03:57:57;15.15;;;4.85;;
24715;SDS011;12822;50.124;8.678;2023-05-29T04:00:23;13.50;;;4.70;;
24715;SDS011;12822;50.124;8.678;2023-05-29T04:02:49;10.60;;;4.47;;
24715;SDS011;12822;50.124;8.678;2023-05-29T04:05:15;14.40;;;5.05;;
24715;SDS011;12822;50.124;8.678;2023-05-29T04:07:41;10.95;;;5.20;;
24715;SDS011;12822;50.124;8.678;2023-05-29T04:10:07;18.65;;;5.10;;
24715;SDS011;12822;50.124;8.678;2023-05-29T04:12:33;14.52;;;5.10;;
24715;SDS011;12822;50.124;8.678;2023-05-29T04:15:00;12.57;;;5.03;;
24715;SDS011;12822;50.124;8.678;2023-05-29T04:17:26;12.52;;;5.15;;
24715;SDS011;12822;50.124;8.678;2023-05-29T04:19:52;13.40;;;5.93;;
24715;SDS011;12822;50.124;8.678;2023-05-29T04:22:18;10.18;;;5.07;;
24715;SDS011;12822;50.124;8.678;2023-05-29T04:24:44;16.13;;;5.70;;
24715;SDS011;12822;50.124;8.678;2023-05-29T04:27:10;12.57;;;5.43;;
24715;SDS011;12822;50.124;8.678;2023-05-29T04:29:38;14.13;;;4.75;;
24715;SDS011;12822;50.124;8.678;2023-05-29T04:32:05;12.45;;;5.40;;
24715;SDS011;12822;50.124;8.678;2023-05-29T04:34:33;15.30;;;5.72;;
24715;SDS011;12822;50.124;8.678;2023-05-29T04:36:59;11.85;;;4.95;;
24715;SDS011;12822;50.124;8.678;2023-05-29T04:39:25;9.73;;;4.85;;
24715;SDS011;12822;50.124;8.678;2023-05-29T04:41:52;14.63;;;5.35;;
24715;SDS011;12822;50.124;8.678;2023-05-29T04:44:18;9.57;;;5.03;;
24715;SDS011;12822;50.124;8.678;2023-05-29T04:46:44;11.70;;;4.75;;
24715;SDS011;12822;50.124;8.678;2023-05-29T04:49:12;15.68;;;5.03;;
24715;SDS011;12822;50.124;8.678;2023-05-29T04:51:38;14.30;;;5.18;;
24715;SDS011;12822;50.124;8.678;2023-05-29T04:54:07;12.48;;;5.55;;
24715;SDS011;12822;50.124;8.678;2023-05-29T04:56:37;12.77;;;5.13;;
24715;SDS011;12822;50.124;8.678;2023-05-29T04:59:05;10.98;;;5.60;;
24715;SDS011;12822;50.124;8.678;2023-05-29T05:01:31;13.23;;;5.60;;
24715;SDS011;12822;50.124;8.678;2023-05-29T05:03:58;10.98;;;5.55;;
24715;SDS011;12822;50.124;8.678;2023-05-29T05:06:24;11.32;;;5.28;;
24715;SDS011;12822;50.124;8.678;2023-05-29T05:08:50;10.90;;;5.03;;
24715;SDS011;12822;50.124;8.678;2023-05-29T05:11:17;11.85;;;5.25;;
24715;SDS011;12822;50.124;8.678;2023-05-29T05:13:43;15.68;;;5.35;;
24715;SDS011;12822;50.124;8.678;2023-05-29T05:16:10;12.73;;;5.13;;
24715;SDS011;12822;50.124;8.678;2023-05-29T05:18:36;9.38;;;4.75;;
24715;SDS011;12822;50.124;8.678;2023-05-29T05:21:03;12.25;;;4.82;;
24715;SDS011;12822;50.124;8.678;2023-05-29T05:23:29;14.98;;;5.38;;
24715;SDS011;12822;50.124;8.678;2023-05-29T05:25:55;15.05;;;5.07;;
24715;SDS011;12822;50.124;8.678;2023-05-29T05:28:21;13.65;;;5.78;;
24715;SDS011;12822;50.124;8.678;2023-05-29T05:30:47;9.32;;;5.28;;
24715;SDS011;12822;50.124;8.678;2023-05-29T05:33:14;14.45;;;5.03;;
24715;SDS011;12822;50.124;8.678;2023-05-29T05:35:40;13.07;;;4.93;;
24715;SDS011;12822;50.124;8.678;2023-05-29T05:38:06;14.30;;;5.22;;
24715;SDS011;12822;50.124;8.678;2023-05-29T05:40:32;12.02;;;5.30;;
24715;SDS011;12822;50.124;8.678;2023-05-29T05:42:58;8.32;;;4.72;;
24715;SDS011;12822;50.124;8.678;2023-05-29T05:45:24;12.30;;;5.10;;
24715;SDS011;12822;50.124;8.678;2023-05-29T05:47:50;12.40;;;5.13;;
24715;SDS011;12822;50.124;8.678;2023-05-29T05:50:16;11.35;;;5.53;;
24715;SDS011;12822;50.124;8.678;2023-05-29T05:52:42;16.60;;;5.05;;
24715;SDS011;12822;50.124;8.678;2023-05-29T05:55:08;9.00;;;4.95;;
24715;SDS011;12822;50.124;8.678;2023-05-29T05:57:35;11.23;;;4.70;;
24715;SDS011;12822;50.124;8.678;2023-05-29T06:00:04;9.32;;;4.63;;
24715;SDS011;12822;50.124;8.678;2023-05-29T06:02:40;9.32;;;4.47;;
24715;SDS011;12822;50.124;8.678;2023-05-29T06:05:07;11.65;;;4.50;;
24715;SDS011;12822;50.124;8.678;2023-05-29T06:07:34;9.40;;;4.70;;
24715;SDS011;12822;50.124;8.678;2023-05-29T06:10:01;11.30;;;4.78;;
24715;SDS011;12822;50.124;8.678;2023-05-29T06:12:26;9.50;;;4.85;;
24715;SDS011;12822;50.124;8.678;2023-05-29T06:14:53;14.38;;;5.57;;
24715;SDS011;12822;50.124;8.678;2023-05-29T06:17:18;8.40;;;4.45;;
24715;SDS011;12822;50.124;8.678;2023-05-29T06:19:46;11.02;;;5.05;;
24715;SDS011;12822;50.124;8.678;2023-05-29T06:22:13;11.38;;;4.63;;
24715;SDS011;12822;50.124;8.678;2023-05-29T06:24:40;9.40;;;4.38;;
24715;SDS011;12822;50.124;8.678;2023-05-29T06:27:06;9.85;;;4.55;;
24715;SDS011;12822;50.124;8.678;2023-05-29T06:29:32;9.68;;;4.45;;
24715;SDS011;12822;50.124;8.678;2023-05-29T06:31:58;8.77;;;4.03;;
24715;SDS011;12822;50.124;8.678;2023-05-29T06:34:25;11.77;;;4.57;;
24715;SDS011;12822;50.124;8.678;2023-05-29T06:36:51;8.70;;;4.57;;
24715;SDS011;12822;50.124;8.678;2023-05-29T06:39:17;10.02;;;4.38;;
24715;SDS011;12822;50.124;8.678;2023-05-29T06:41:45;13.45;;;5.03;;
24715;SDS011;12822;50.124;8.678;2023-05-29T06:44:11;8.98;;;4.15;;
24715;SDS011;12822;50.124;8.678;2023-05-29T06:46:37;10.02;;;4.40;;
24715;SDS011;12822;50.124;8.678;2023-05-29T06:49:03;7.97;;;4.05;;
24715;SDS011;12822;50.124;8.678;2023-05-29T06:51:29;9.13;;;3.90;;
24715;SDS011;12822;50.124;8.678;2023-05-29T06:53:57;9.52;;;4.20;;
24715;SDS011;12822;50.124;8.678;2023-05-29T06:56:23;8.82;;;3.85;;
24715;SDS011;12822;50.124;8.678;2023-05-29T06:58:49;9.43;;;4.57;;
24715;SDS011;12822;50.124;8.678;2023-05-29T07:01:19;8.57;;;4.22;;
24715;SDS011;12822;50.124;8.678;2023-05-29T07:03:46;12.98;;;4.38;;
24715;SDS011;12822;50.124;8.678;2023-05-29T07:06:12;7.43;;;3.97;;
24715;SDS011;12822;50.124;8.678;2023-05-29T07:08:38;10.68;;;4.18;;
24715;SDS011;12822;50.124;8.678;2023-05-29T07:11:04;11.48;;;3.85;;
24715;SDS011;12822;50.124;8.678;2023-05-29T07:13:30;11.13;;;4.35;;
24715;SDS011;12822;50.124;8.678;2023-05-29T07:15:56;8.05;;;3.92;;
24715;SDS011;12822;50.124;8.678;2023-05-29T07:18:22;13.07;;;4.07;;
24715;SDS011;12822;50.124;8.678;2023-05-29T07:20:48;9.45;;;4.30;;
24715;SDS011;12822;50.124;8.678;2023-05-29T07:23:14;11.85;;;4.57;;
24715;SDS011;12822;50.124;8.678;2023-05-29T07:25:40;8.15;;;3.70;;
24715;SDS011;12822;50.124;8.678;2023-05-29T07:28:06;9.52;;;4.20;;
24715;SDS011;12822;50.124;8.678;2023-05-29T07:30:32;8.45;;;4.22;;
24715;SDS011;12822;50.124;8.678;2023-05-29T07:32:58;9.13;;;4.18;;
24715;SDS011;12822;50.124;8.678;2023-05-29T07:35:24;8.98;;;4.30;;
24715;SDS011;12822;50.124;8.678;2023-05-29T07:37:50;10.65;;;4.65;;
24715;SDS011;12822;50.124;8.678;2023-05-29T07:40:17;12.30;;;4.25;;
24715;SDS011;12822;50.124;8.678;2023-05-29T07:42:43;8.48;;;4.07;;
24715;SDS011;12822;50.124;8.678;2023-05-29T07:45:09;8.50;;;4.15;;
24715;SDS011;12822;50.124;8.678;2023-05-29T07:47:36;6.13;;;3.50;;
24715;SDS011;12822;50.124;8.678;2023-05-29T07:50:02;11.18;;;4.38;;
24715;SDS011;12822;50.124;8.678;2023-05-29T07:52:28;8.40;;;3.58;;
24715;SDS011;12822;50.124;8.678;2023-05-29T07:54:54;8.80;;;3.80;;
24715;SDS011;12822;50.124;8.678;2023-05-29T07:57:20;6.65;;;3.85;;
24715;SDS011;12822;50.124;8.678;2023-05-29T07:59:46;9.57;;;3.95;;
24715;SDS011;12822;50.124;8.678;2023-05-29T08:02:14;7.25;;;3.95;;
24715;SDS011;12822;50.124;8.678;2023-05-29T08:04:41;8.50;;;3.78;;
24715;SDS011;12822;50.124;8.678;2023-05-29T08:07:07;6.82;;;3.83;;
24715;SDS011;12822;50.124;8.678;2023-05-29T08:09:34;7.05;;;3.90;;
24715;SDS011;12822;50.124;8.678;2023-05-29T08:12:00;8.10;;;3.72;;
24715;SDS011;12822;50.124;8.678;2023-05-29T08:14:27;9.50;;;3.50;;
24715;SDS011;12822;50.124;8.678;2023-05-29T08:16:53;6.93;;;3.65;;
24715;SDS011;12822;50.124;8.678;2023-05-29T08:19:19;8.52;;;4.07;;
24715;SDS011;12822;50.124;8.678;2023-05-29T08:21:45;7.82;;;3.85;;
24715;SDS011;12822;50.124;8.678;2023-05-29T08:24:11;9.05;;;3.92;;
24715;SDS011;12822;50.124;8.678;2023-05-29T08:26:37;9.25;;;3.38;;
24715;SDS011;12822;50.124;8.678;2023-05-29T08:29:03;6.65;;;3.30;;
24715;SDS011;12822;50.124;8.678;2023-05-29T08:31:30;14.15;;;3.90;;
24715;SDS011;12822;50.124;8.678;2023-05-29T08:33:56;6.88;;;3.80;;
24715;SDS011;12822;50.124;8.678;2023-05-29T08:36:23;6.28;;;3.95;;
24715;SDS011;12822;50.124;8.678;2023-05-29T08:38:49;7.20;;;3.55;;
24715;SDS011;12822;50.124;8.678;2023-05-29T08:41:20;6.97;;;2.92;;
24715;SDS011;12822;50.124;8.678;2023-05-29T08:43:47;8.55;;;3.72;;
24715;SDS011;12822;50.124;8.678;2023-05-29T08:46:15;7.85;;;3.38;;
24715;SDS011;12822;50.124;8.678;2023-05-29T08:48:43;7.63;;;4.13;;
24715;SDS011;12822;50.124;8.678;2023-05-29T08:51:13;5.45;;;3.40;;
24715;SDS011;12822;50.124;8.678;2023-05-29T08:53:40;6.10;;;3.47;;
24715;SDS011;12822;50.124;8.678;2023-05-29T08:56:06;7.03;;;3.40;;
24715;SDS011;12822;50.124;8.678;2023-05-29T08:58:33;6.25;;;3.60;;
24715;SDS011;12822;50.124;8.678;2023-05-29T09:00:59;9.27;;;3.60;;
24715;SDS011;12822;50.124;8.678;2023-05-29T09:03:26;5.50;;;3.05;;
24715;SDS011;12822;50.124;8.678;2023-05-29T09:05:52;8.73;;;3.45;;
24715;SDS011;12822;50.124;8.678;2023-05-29T09:08:24;6.70;;;3.22;;
24715;SDS011;12822;50.124;8.678;2023-05-29T09:10:51;7.57;;;3.45;;
24715;SDS011;12822;50.124;8.678;2023-05-29T09:13:17;7.78;;;3.38;;
24715;SDS011;12822;50.124;8.678;2023-05-29T09:15:43;7.53;;;3.42;;
24715;SDS011;12822;50.124;8.678;2023-05-29T09:18:10;5.75;;;3.10;;
24715;SDS011;12822;50.124;8.678;2023-05-29T09:20:36;9.68;;;3.10;;
24715;SDS011;12822;50.124;8.678;2023-05-29T09:23:03;9.23;;;3.22;;
24715;SDS011;12822;50.124;8.678;2023-05-29T09:25:30;8.25;;;3.42;;
24715;SDS011;12822;50.124;8.678;2023-05-29T09:27:58;7.88;;;3.65;;
24715;SDS011;12822;50.124;8.678;2023-05-29T09:30:46;5.50;;;3.35;;
24715;SDS011;12822;50.124;8.678;2023-05-29T09:33:12;7.10;;;3.25;;
24715;SDS011;12822;50.124;8.678;2023-05-29T09:35:45;5.55;;;2.95;;
24715;SDS011;12822;50.124;8.678;2023-05-29T09:38:12;5.75;;;3.20;;
24715;SDS011;12822;50.124;8.678;2023-05-29T09:40:39;6.38;;;2.97;;
24715;SDS011;12822;50.124;8.678;2023-05-29T09:43:09;13.45;;;3.22;;
24715;SDS011;12822;50.124;8.678;2023-05-29T09:45:42;8.60;;;3.28;;
24715;SDS011;12822;50.124;8.678;2023-05-29T09:48:12;6.18;;;3.20;;
24715;SDS011;12822;50.124;8.678;2023-05-29T09:50:38;6.20;;;2.83;;
24715;SDS011;12822;50.124;8.678;2023-05-29T09:53:15;6.88;;;3.35;;
24715;SDS011;12822;50.124;8.678;2023-05-29T09:55:42;10.88;;;3.20;;
24715;SDS011;12822;50.124;8.678;2023-05-29T09:58:08;6.07;;;2.80;;
24715;SDS011;12822;50.124;8.678;2023-05-29T10:00:37;5.90;;;3.20;;
24715;SDS011;12822;50.124;8.678;2023-05-29T10:03:03;7.28;;;3.10;;
24715;SDS011;12822;50.124;8.678;2023-05-29T10:05:29;7.70;;;3.22;;
24715;SDS011;12822;50.124;8.678;2023-05-29T10:07:56;5.78;;;3.00;;
24715;SDS011;12822;50.124;8.678;2023-05-29T10:10:23;8.02;;;2.83;;
24715;SDS011;12822;50.124;8.678;2023-05-29T10:12:51;6.55;;;2.80;;
24715;SDS011;12822;50.124;8.678;2023-05-29T10:15:19;6.18;;;3.10;;
24715;SDS011;12822;50.124;8.678;2023-05-29T10:17:50;5.97;;;3.25;;
24715;SDS011;12822;50.124;8.678;2023-05-29T10:20:16;7.88;;;2.97;;
24715;SDS011;12822;50.124;8.678;2023-05-29T10:22:45;5.50;;;2.97;;
24715;SDS011;12822;50.124;8.678;2023-05-29T10:25:13;5.15;;;2.90;;
24715;SDS011;12822;50.124;8.678;2023-05-29T10:27:40;4.75;;;3.28;;
24715;SDS011;12822;50.124;8.678;2023-05-29T10:32:38;5.32;;;2.63;;
24715;SDS011;12822;50.124;8.678;2023-05-29T10:35:16;6.53;;;2.83;;
24715;SDS011;12822;50.124;8.678;2023-05-29T10:40:10;5.18;;;2.70;;
24715;SDS011;12822;50.124;8.678;2023-05-29T10:42:40;5.20;;;2.80;;
24715;SDS011;12822;50.124;8.678;2023-05-29T10:45:09;7.47;;;2.90;;
24715;SDS011;12822;50.124;8.678;2023-05-29T10:47:38;5.20;;;3.00;;
24715;SDS011;12822;50.124;8.678;2023-05-29T10:50:05;5.30;;;2.92;;
24715;SDS011;12822;50.124;8.678;2023-05-29T10:52:34;7.13;;;3.10;;
24715;SDS011;12822;50.124;8.678;2023-05-29T10:55:00;4.70;;;2.60;;
24715;SDS011;12822;50.124;8.678;2023-05-29T10:57:29;6.13;;;2.90;;
24715;SDS011;12822;50.124;8.678;2023-05-29T11:00:15;5.40;;;2.95;;
24715;SDS011;12822;50.124;8.678;2023-05-29T11:02:43;5.70;;;2.92;;
24715;SDS011;12822;50.124;8.678;2023-05-29T11:05:21;5.30;;;2.80;;
24715;SDS011;12822;50.124;8.678;2023-05-29T11:08:06;5.75;;;3.15;;
24715;SDS011;12822;50.124;8.678;2023-05-29T11:10:42;9.05;;;2.80;;
24715;SDS011;12822;50.124;8.678;2023-05-29T11:13:09;4.00;;;2.58;;
24715;SDS011;12822;50.124;8.678;2023-05-29T11:15:36;8.25;;;2.70;;
24715;SDS011;12822;50.124;8.678;2023-05-29T11:18:06;4.75;;;2.85;;
24715;SDS011;12822;50.124;8.678;2023-05-29T11:20:35;4.03;;;2.97;;
24715;SDS011;12822;50.124;8.678;2023-05-29T11:23:03;7.30;;;2.60;;
24715;SDS011;12822;50.124;8.678;2023-05-29T11:25:33;4.40;;;2.88;;
24715;SDS011;12822;50.124;8.678;2023-05-29T11:27:59;4.13;;;2.65;;
24715;SDS011;12822;50.124;8.678;2023-05-29T11:30:25;3.95;;;2.60;;
24715;SDS011;12822;50.124;8.678;2023-05-29T11:32:51;6.07;;;2.63;;
24715;SDS011;12822;50.124;8.678;2023-05-29T11:35:19;5.20;;;2.70;;
24715;SDS011;12822;50.124;8.678;2023-05-29T11:37:47;4.40;;;3.00;;
24715;SDS011;12822;50.124;8.678;2023-05-29T11:40:15;4.50;;;2.63;;
24715;SDS011;12822;50.124;8.678;2023-05-29T11:42:45;7.43;;;2.65;;
24715;SDS011;12822;50.124;8.678;2023-05-29T11:45:17;4.60;;;2.55;;
24715;SDS011;12822;50.124;8.678;2023-05-29T11:47:53;8.73;;;3.10;;
24715;SDS011;12822;50.124;8.678;2023-05-29T11:50:20;4.60;;;2.65;;
24715;SDS011;12822;50.124;8.678;2023-05-29T11:52:46;4.68;;;2.90;;
24715;SDS011;12822;50.124;8.678;2023-05-29T11:55:12;4.53;;;2.60;;
24715;SDS011;12822;50.124;8.678;2023-05-29T11:57:38;3.63;;;2.38;;
24715;SDS011;12822;50.124;8.678;2023-05-29T12:00:04;4.57;;;2.80;;
24715;SDS011;12822;50.124;8.678;2023-05-29T12:02:33;6.40;;;2.60;;
24715;SDS011;12822;50.124;8.678;2023-05-29T12:05:02;6.72;;;2.63;;
24715;SDS011;12822;50.124;8.678;2023-05-29T12:07:29;3.25;;;2.30;;
24715;SDS011;12822;50.124;8.678;2023-05-29T12:09:55;4.85;;;2.95;;
24715;SDS011;12822;50.124;8.678;2023-05-29T12:12:23;2.90;;;2.58;;
24715;SDS011;12822;50.124;8.678;2023-05-29T12:14:50;4.30;;;2.50;;
24715;SDS011;12822;50.124;8.678;2023-05-29T12:17:16;5.35;;;2.50;;
24715;SDS011;12822;50.124;8.678;2023-05-29T12:19:42;3.28;;;2.50;;
24715;SDS011;12822;50.124;8.678;2023-05-29T12:22:11;4.22;;;2.65;;
24715;SDS011;12822;50.124;8.678;2023-05-29T12:24:37;4.47;;;2.78;;
24715;SDS011;12822;50.124;8.678;2023-05-29T12:27:04;4.57;;;2.60;;
24715;SDS011;12822;50.124;8.678;2023-05-29T12:29:35;6.65;;;2.80;;
24715;SDS011;12822;50.124;8.678;2023-05-29T12:32:01;5.72;;;2.75;;
24715;SDS011;12822;50.124;8.678;2023-05-29T12:34:27;4.07;;;2.47;;
24715;SDS011;12822;50.124;8.678;2023-05-29T12:37:07;3.85;;;2.80;;
24715;SDS011;12822;50.124;8.678;2023-05-29T12:39:34;6.15;;;3.15;;
24715;SDS011;12822;50.124;8.678;2023-05-29T12:42:01;5.97;;;3.10;;
24715;SDS011;12822;50.124;8.678;2023-05-29T12:44:27;7.70;;;3.10;;
24715;SDS011;12822;50.124;8.678;2023-05-29T12:46:55;6.32;;;3.10;;
24715;SDS011;12822;50.124;8.678;2023-05-29T12:49:22;5.07;;;2.83;;
24715;SDS011;12822;50.124;8.678;2023-05-29T12:51:50;6.40;;;2.83;;
24715;SDS011;12822;50.124;8.678;2023-05-29T12:54:17;5.40;;;2.85;;
24715;SDS011;12822;50.124;8.678;2023-05-29T12:56:43;10.30;;;3.42;;
24715;SDS011;12822;50.124;8.678;2023-05-29T12:59:11;5.28;;;2.97;;
24715;SDS011;12822;50.124;8.678;2023-05-29T13:01:37;5.30;;;2.75;;
24715;SDS011;12822;50.124;8.678;2023-05-29T13:04:04;6.18;;;3.25;;
24715;SDS011;12822;50.124;8.678;2023-05-29T13:06:39;4.53;;;3.00;;
24715;SDS011;12822;50.124;8.678;2023-05-29T13:09:05;7.40;;;3.20;;
24715;SDS011;12822;50.124;8.678;2023-05-29T13:11:32;7.10;;;3.03;;
24715;SDS011;12822;50.124;8.678;2023-05-29T13:13:58;5.30;;;3.10;;
24715;SDS011;12822;50.124;8.678;2023-05-29T13:16:24;5.18;;;3.42;;
24715;SDS011;12822;50.124;8.678;2023-05-29T13:18:50;5.00;;;3.15;;
24715;SDS011;12822;50.124;8.678;2023-05-29T13:21:16;5.82;;;3.10;;
24715;SDS011;12822;50.124;8.678;2023-05-29T13:23:42;6.18;;;3.10;;
24715;SDS011;12822;50.124;8.678;2023-05-29T13:26:08;7.85;;;3.72;;
24715;SDS011;12822;50.124;8.678;2023-05-29T13:28:34;5.05;;;3.10;;
24715;SDS011;12822;50.124;8.678;2023-05-29T13:31:00;6.55;;;3.80;;
24715;SDS011;12822;50.124;8.678;2023-05-29T13:33:26;5.57;;;3.47;;
24715;SDS011;12822;50.124;8.678;2023-05-29T13:35:52;8.23;;;3.38;;
24715;SDS011;12822;50.124;8.678;2023-05-29T13:38:18;6.88;;;3.10;;
24715;SDS011;12822;50.124;8.678;2023-05-29T13:40:45;8.05;;;3.45;;
24715;SDS011;12822;50.124;8.678;2023-05-29T13:43:11;8.50;;;3.65;;
24715;SDS011;12822;50.124;8.678;2023-05-29T13:45:37;7.32;;;3.90;;
24715;SDS011;12822;50.124;8.678;2023-05-29T13:48:05;7.40;;;3.42;;
24715;SDS011;12822;50.124;8.678;2023-05-29T13:50:33;7.60;;;3.35;;
24715;SDS011;12822;50.124;8.678;2023-05-29T13:52:59;10.07;;;3.63;;
24715;SDS011;12822;50.124;8.678;2023-05-29T13:55:25;6.13;;;3.42;;
24715;SDS011;12822;50.124;8.678;2023-05-29T13:57:51;6.30;;;3.65;;
24715;SDS011;12822;50.124;8.678;2023-05-29T14:00:18;9.43;;;3.55;;
24715;SDS011;12822;50.124;8.678;2023-05-29T14:02:44;7.53;;;3.58;;
24715;SDS011;12822;50.124;8.678;2023-05-29T14:05:10;7.88;;;3.45;;
24715;SDS011;12822;50.124;8.678;2023-05-29T14:07:36;7.93;;;3.80;;
24715;SDS011;12822;50.124;8.678;2023-05-29T14:10:02;7.70;;;3.40;;
24715;SDS011;12822;50.124;8.678;2023-05-29T14:12:28;10.38;;;3.95;;
24715;SDS011;12822;50.124;8.678;2023-05-29T14:14:54;6.57;;;3.95;;
24715;SDS011;12822;50.124;8.678;2023-05-29T14:17:21;6.22;;;3.28;;
24715;SDS011;12822;50.124;8.678;2023-05-29T14:19:46;9.40;;;3.90;;
24715;SDS011;12822;50.124;8.678;2023-05-29T14:22:13;5.97;;;3.30;;
24715;SDS011;12822;50.124;8.678;2023-05-29T14:24:39;6.20;;;3.78;;
24715;SDS011;12822;50.124;8.678;2023-05-29T14:27:05;7.75;;;3.53;;
24715;SDS011;12822;50.124;8.678;2023-05-29T14:29:31;8.48;;;3.08;;
24715;SDS011;12822;50.124;8.678;2023-05-29T14:31:57;10.85;;;4.00;;
24715;SDS011;12822;50.124;8.678;2023-05-29T14:34:23;9.65;;;3.70;;
24715;SDS011;12822;50.124;8.678;2023-05-29T14:36:49;9.20;;;3.58;;
24715;SDS011;12822;50.124;8.678;2023-05-29T14:39:15;7.82;;;3.88;;
24715;SDS011;12822;50.124;8.678;2023-05-29T14:41:41;7.38;;;3.75;;
24715;SDS011;12822;50.124;8.678;2023-05-29T14:44:10;8.07;;;3.60;;
24715;SDS011;12822;50.124;8.678;2023-05-29T14:46:37;6.25;;;3.75;;
24715;SDS011;12822;50.124;8.678;2023-05-29T14:49:03;9.40;;;3.42;;
24715;SDS011;12822;50.124;8.678;2023-05-29T14:51:30;5.70;;;3.85;;
24715;SDS011;12822;50.124;8.678;2023-05-29T14:53:56;12.98;;;3.85;;
24715;SDS011;12822;50.124;8.678;2023-05-29T14:56:22;9.20;;;3.63;;